Time;durP1;ratioP1;P1;durP2;ratioP2;P2;SDS_P1;SDS_P2;PMS_P1;PMS_P2;Temp;Humidity;BMP_temperature;BMP_pressure;BME280_temperature;BME280_humidity;BME280_pressure;Samples;Min_cycle;Max_cycle;Signal;HPM_P1;HPM_P2
2022/07/25 00:03:53;;;;;;;3.75;2.58;;;;;;;22.63;34.93;99942.09;7632156;32;39375;-83
2022/07/25 00:08:11;;;;;;;4.18;2.70;;;;;;;22.91;34.72;99935.78;7631527;32;39902;-82
2022/07/25 00:12:27;;;;;;;5.00;2.62;;;;;;;22.54;34.76;99936.62;7632050;32;37925;-82
2022/07/25 00:16:43;;;;;;;8.45;2.78;;;;;;;22.38;36.21;99933.75;7631846;32;37364;-82
2022/07/25 00:20:59;;;;;;;6.68;3.35;;;;;;;22.11;36.22;99941.59;7612002;32;39340;-82
2022/07/25 00:25:15;;;;;;;5.50;2.83;;;;;;;22.27;36.88;99938.97;7605810;32;40850;-82
2022/07/25 00:29:31;;;;;;;4.30;2.80;;;;;;;22.21;37.45;99926.44;7605838;32;38676;-82
2022/07/25 00:33:48;;;;;;;8.95;3.10;;;;;;;22.34;37.40;99923.72;7605829;32;37111;-82
2022/07/25 00:38:04;;;;;;;5.95;3.10;;;;;;;22.09;38.25;99927.25;7621124;32;37937;-83
2022/07/25 00:42:20;;;;;;;3.42;2.42;;;;;;;22.20;39.17;99932.34;7631756;32;40061;-83
2022/07/25 00:46:38;;;;;;;5.62;3.15;;;;;;;22.51;38.72;99931.78;7631520;32;37868;-83
2022/07/25 00:50:57;;;;;;;6.05;2.90;;;;;;;22.16;39.46;99925.84;7631709;32;37243;-82
2022/07/25 00:55:13;;;;;;;4.55;2.70;;;;;;;22.12;39.81;99929.31;7631529;32;39742;-81
2022/07/25 00:59:29;;;;;;;5.65;2.62;;;;;;;22.29;39.75;99933.88;7618591;32;40779;-82
2022/07/25 01:03:45;;;;;;;4.65;3.15;;;;;;;22.09;40.75;99931.97;7630180;32;38698;-81
2022/07/25 01:08:03;;;;;;;8.52;2.92;;;;;;;22.00;41.38;99934.06;7631353;32;36907;-82
2022/07/25 01:12:19;;;;;;;6.35;2.85;;;;;;;21.96;40.93;99925.63;7631266;32;39385;-81
2022/07/25 01:16:35;;;;;;;6.35;3.30;;;;;;;21.82;40.25;99930.66;7630874;32;39995;-82
2022/07/25 01:20:52;;;;;;;5.37;2.83;;;;;;;21.79;40.47;99936.94;7629320;32;38701;-82
2022/07/25 01:25:08;;;;;;;5.12;3.08;;;;;;;21.77;40.18;99923.41;7604781;32;37824;-83
2022/07/25 01:29:24;;;;;;;4.30;2.97;;;;;;;21.61;40.68;99928.81;7607314;32;40589;-81
2022/07/25 01:33:40;;;;;;;4.75;3.15;;;;;;;21.54;40.92;99932.13;7630783;32;40021;-82
2022/07/25 01:37:56;;;;;;;5.47;3.20;;;;;;;21.65;41.42;99932.50;7630481;32;39172;-82
2022/07/25 01:42:13;;;;;;;5.32;3.03;;;;;;;21.50;44.62;99925.63;7630550;32;37405;-82
2022/07/25 01:46:29;;;;;;;5.10;3.15;;;;;;;21.61;43.84;99927.97;7627820;32;39493;-80
2022/07/25 01:50:45;;;;;;;4.62;3.00;;;;;;;21.49;44.18;99925.97;7622988;32;39825;-82
2022/07/25 01:55:01;;;;;;;5.45;3.45;;;;;;;21.32;45.52;99926.94;7628766;32;37564;-82
2022/07/25 01:59:17;;;;;;;5.55;3.40;;;;;;;21.49;45.06;99920.41;7630108;32;36807;-82
2022/07/25 02:03:33;;;;;;;5.25;3.20;;;;;;;21.44;44.54;99915.06;7630054;32;39281;-82
2022/07/25 02:07:49;;;;;;;10.55;3.20;;;;;;;21.48;42.74;99910.50;7629820;32;39997;-82
2022/07/25 02:12:06;;;;;;;5.35;3.28;;;;;;;21.38;41.94;99920.81;7629703;32;37492;-83
2022/07/25 02:16:22;;;;;;;4.93;3.10;;;;;;;21.39;41.51;99916.09;7631082;32;37886;-82
2022/07/25 02:20:44;;;;;;;3.80;3.12;;;;;;;21.35;41.48;99923.47;7607032;32;40112;-83
2022/07/25 02:25:00;;;;;;;4.62;2.97;;;;;;;21.37;41.36;99921.19;7593488;32;40059;-83
2022/07/25 02:29:16;;;;;;;5.55;2.80;;;;;;;21.45;41.16;99934.13;7606974;32;38904;-83
2022/07/25 02:33:36;;;;;;;6.18;3.30;;;;;;;21.39;41.73;99924.44;7607036;32;37937;-83
2022/07/25 02:37:52;;;;;;;8.55;3.20;;;;;;;21.29;41.74;99931.19;7606880;32;40172;-82
2022/07/25 02:42:08;;;;;;;4.60;2.95;;;;;;;21.36;41.50;99934.22;7606856;32;39974;-80
2022/07/25 02:46:24;;;;;;;7.55;3.17;;;;;;;21.32;41.58;99924.97;7607923;32;37928;-82
2022/07/25 02:50:41;;;;;;;4.87;3.22;;;;;;;21.29;41.63;99927.63;7632631;32;38233;-82
2022/07/25 02:54:57;;;;;;;11.77;3.20;;;;;;;21.29;41.74;99922.88;7632765;32;39412;-82
2022/07/25 02:59:13;;;;;;;3.83;3.03;;;;;;;21.26;42.06;99937.41;7632344;32;40577;-81
2022/07/25 03:03:29;;;;;;;6.32;3.70;;;;;;;21.32;41.79;99936.06;7632211;32;37886;-82
2022/07/25 03:07:45;;;;;;;5.35;3.20;;;;;;;21.22;42.04;99932.91;7632649;32;38094;-82
2022/07/25 03:12:01;;;;;;;5.15;3.22;;;;;;;21.01;42.75;99937.31;7622292;32;39997;-82
2022/07/25 03:16:17;;;;;;;8.10;3.08;;;;;;;21.03;43.26;99928.66;7606135;32;40759;-82
2022/07/25 03:20:33;;;;;;;6.82;3.33;;;;;;;20.97;44.80;99930.84;7606255;32;39116;-82
2022/07/25 03:24:50;;;;;;;9.48;4.18;;;;;;;21.02;44.81;99932.56;7605481;32;37167;-82
2022/07/25 03:29:06;;;;;;;9.20;3.25;;;;;;;20.55;46.77;99938.25;7606401;32;40136;-83
2022/07/25 03:33:22;;;;;;;6.75;3.53;;;;;;;20.79;45.86;99941.22;7606268;32;39969;-82
2022/07/25 03:37:38;;;;;;;6.68;4.18;;;;;;;20.90;46.32;99929.75;7606073;32;37859;-84
2022/07/25 03:41:54;;;;;;;6.70;3.45;;;;;;;20.76;48.04;99935.53;7592784;32;37752;-82
2022/07/25 03:46:10;;;;;;;8.88;3.90;;;;;;;20.78;47.75;99933.25;7606377;32;39743;-82
2022/07/25 03:50:27;;;;;;;6.90;3.47;;;;;;;20.83;47.78;99941.34;7606086;32;41426;-81
2022/07/25 03:54:43;;;;;;;5.62;3.50;;;;;;;20.58;48.41;99943.94;7606070;32;37616;-81
2022/07/25 03:58:59;;;;;;;6.15;3.67;;;;;;;20.70;47.76;99936.91;7605998;32;37270;-82
2022/07/25 04:03:15;;;;;;;5.85;3.58;;;;;;;20.89;46.89;99940.03;7606083;32;40201;-82
2022/07/25 04:07:31;;;;;;;6.12;3.55;;;;;;;20.83;47.37;99941.34;7620066;32;40082;-82
2022/07/25 04:11:47;;;;;;;10.27;4.20;;;;;;;20.96;47.56;99943.06;7605688;32;37967;-82
2022/07/25 04:16:04;;;;;;;5.43;3.37;;;;;;;20.94;48.17;99945.34;7605578;32;37936;-80
2022/07/25 04:20:23;;;;;;;7.68;3.17;;;;;;;21.07;47.88;99950.97;7605843;32;39844;-82
2022/07/25 04:24:39;;;;;;;8.20;3.83;;;;;;;21.11;47.56;99946.34;7605628;32;40024;-81
2022/07/25 04:28:57;;;;;;;8.10;3.75;;;;;;;21.10;47.90;99947.53;7605559;32;38006;-82
2022/07/25 04:33:14;;;;;;;6.25;3.42;;;;;;;21.18;47.53;99957.72;7605574;32;37982;-83
2022/07/25 04:37:30;;;;;;;6.22;3.42;;;;;;;21.20;47.49;99959.00;7606793;32;40238;-82
2022/07/25 04:41:46;;;;;;;5.65;3.72;;;;;;;21.33;47.45;99951.53;7605293;32;39996;-82
2022/07/25 04:46:02;;;;;;;8.27;3.85;;;;;;;21.15;48.15;99961.19;7605304;32;38684;-82
2022/07/25 04:50:18;;;;;;;5.62;3.60;;;;;;;21.19;48.85;99957.38;7605287;32;37061;-82
2022/07/25 04:54:39;;;;;;;6.25;3.72;;;;;;;21.30;48.55;99960.56;7605425;32;39438;-82
2022/07/25 04:58:56;;;;;;;5.05;3.55;;;;;;;21.31;48.18;99961.34;7614583;32;40755;-77
2022/07/25 05:03:16;;;;;;;5.80;3.60;;;;;;;21.67;47.08;99952.38;7617797;32;37850;-77
2022/07/25 05:07:32;;;;;;;5.93;3.70;;;;;;;22.00;46.54;99948.75;7605159;32;37258;-76
2022/07/25 05:11:48;;;;;;;6.97;4.05;;;;;;;22.37;45.46;99942.44;7605072;32;40068;-76
2022/07/25 05:16:11;;;;;;;5.95;3.90;;;;;;;22.57;44.94;99940.69;7604709;32;40824;-77
2022/07/25 05:20:27;;;;;;;7.32;3.80;;;;;;;22.53;45.16;99939.78;7616961;32;37894;-77
2022/07/25 05:24:43;;;;;;;8.57;3.83;;;;;;;22.79;44.56;99933.81;7630812;32;37104;-75
2022/07/25 05:28:59;;;;;;;7.20;3.55;;;;;;;22.93;44.44;99939.81;7630584;32;40074;-76
2022/07/25 05:33:15;;;;;;;10.65;3.78;;;;;;;23.00;42.80;99933.66;7630867;32;40738;-76
2022/07/25 05:37:31;;;;;;;5.30;3.22;;;;;;;23.23;42.50;99931.16;7627973;32;37933;-76
2022/07/25 05:41:47;;;;;;;9.50;3.75;;;;;;;23.36;42.19;99934.69;7604571;32;37085;-76
2022/07/25 05:46:04;;;;;;;6.90;3.40;;;;;;;23.35;41.93;99924.72;7604419;32;39341;-76
2022/07/25 05:50:20;;;;;;;5.75;3.40;;;;;;;23.62;41.22;99926.66;7593182;32;39931;-74
2022/07/25 05:54:36;;;;;;;5.50;3.62;;;;;;;23.62;41.57;99921.09;7607277;32;37931;-76
2022/07/25 05:58:52;;;;;;;10.65;3.50;;;;;;;24.00;40.20;99922.50;7594339;32;37265;-76
2022/07/25 06:03:08;;;;;;;6.35;3.33;;;;;;;23.86;41.42;99924.94;7623314;32;39245;-74
2022/07/25 06:07:24;;;;;;;11.55;3.85;;;;;;;24.30;40.79;99921.22;7633258;32;40117;-73
2022/07/25 06:11:40;;;;;;;11.02;3.47;;;;;;;24.56;41.08;99923.47;7612294;32;39506;-77
2022/07/25 06:16:12;;;;;;;5.90;3.45;;;;;;;24.86;40.12;99923.72;7607078;32;37914;-76
2022/07/25 06:20:28;;;;;;;9.63;3.55;;;;;;;25.21;38.92;99916.47;7607207;32;39472;-75
2022/07/25 06:24:45;;;;;;;6.70;3.72;;;;;;;25.37;38.68;99916.41;7607120;32;41172;-75
2022/07/25 06:29:01;;;;;;;9.32;4.12;;;;;;;25.67;37.92;99909.00;7609695;32;37696;-75
2022/07/25 06:33:17;;;;;;;6.40;3.67;;;;;;;25.32;40.86;99914.75;7632891;32;36710;-76
2022/07/25 06:37:38;;;;;;;5.35;3.35;;;;;;;25.81;39.91;99905.66;7633037;32;39137;-73
2022/07/25 06:41:54;;;;;;;7.12;3.47;;;;;;;25.85;40.29;99908.50;7633037;32;40070;-72
2022/07/25 06:46:09;;;;;;;5.15;3.37;;;;;;;25.69;40.63;99908.66;7620403;32;38829;-74
2022/07/25 06:50:26;;;;;;;5.53;3.05;;;;;;;25.90;35.76;99893.44;7631989;32;37920;-74
2022/07/25 06:54:42;;;;;;;7.32;3.35;;;;;;;26.28;33.58;99886.09;7632714;32;40072;-74
2022/07/25 06:58:59;;;;;;;4.90;3.37;;;;;;;26.60;35.68;99884.56;7628322;32;40388;-74
2022/07/25 07:03:15;;;;;;;5.70;3.20;;;;;;;26.81;34.71;99886.06;7631584;32;38747;-74
2022/07/25 07:07:31;;;;;;;7.80;3.35;;;;;;;26.84;32.70;99879.72;7627101;32;36815;-81
2022/07/25 07:11:48;;;;;;;8.13;3.35;;;;;;;27.30;31.45;99876.69;7605970;32;40030;-81
2022/07/25 07:16:04;;;;;;;5.47;3.00;;;;;;;27.16;30.55;99870.91;7603344;32;39516;-85
2022/07/25 07:20:20;;;;;;;7.80;3.08;;;;;;;27.52;29.97;99871.31;7604043;32;39281;-84
2022/07/25 07:24:36;;;;;;;9.90;3.58;;;;;;;28.05;29.84;99867.41;7604795;32;38632;-85
2022/07/25 07:29:01;;;;;;;5.53;3.00;;;;;;;28.32;29.55;99869.97;7605580;32;39082;-84
2022/07/25 07:33:18;;;;;;;4.80;2.72;;;;;;;28.78;28.55;99867.44;7606140;32;40023;-80
2022/07/25 07:37:34;;;;;;;14.13;3.10;;;;;;;29.03;27.82;99863.94;7606472;32;38041;-80
2022/07/25 07:41:57;;;;;;;4.85;2.75;;;;;;;29.13;27.51;99868.78;7606274;32;37101;-81
2022/07/25 07:46:15;;;;;;;5.20;3.05;;;;;;;29.27;26.76;99858.81;7606350;32;39492;-80
2022/07/25 07:50:31;;;;;;;4.97;2.83;;;;;;;29.28;27.24;99854.81;7606265;32;41048;-81
2022/07/25 07:59:21;;;;;;;4.50;2.70;;;;;;;29.37;27.28;99858.03;7603759;32;37995;-81
2022/07/25 08:03:37;;;;;;;4.00;2.85;;;;;;;29.34;26.96;99844.81;7603169;32;40448;-81
2022/07/25 08:07:54;;;;;;;8.27;3.08;;;;;;;29.73;26.66;99839.19;7603858;32;39678;-80
2022/07/25 08:12:10;;;;;;;6.50;2.85;;;;;;;30.28;26.18;99846.41;7604489;32;38290;-81
2022/07/25 08:16:26;;;;;;;5.57;3.20;;;;;;;30.47;25.00;99830.31;7605857;32;37088;-81
2022/07/25 08:20:42;;;;;;;5.93;3.03;;;;;;;30.47;25.61;99824.69;7606243;32;40095;-80
2022/07/25 08:24:58;;;;;;;5.93;2.90;;;;;;;30.68;25.09;99823.81;7606061;32;41012;-81
2022/07/25 08:29:14;;;;;;;6.07;2.80;;;;;;;30.61;25.02;99824.63;7605569;32;37857;-80
2022/07/25 08:33:37;;;;;;;4.22;2.80;;;;;;;30.59;25.00;99827.06;7605951;32;37043;-80
2022/07/25 08:37:53;;;;;;;5.72;2.58;;;;;;;31.14;24.46;99819.19;7605694;32;39301;-81
2022/07/25 08:42:09;;;;;;;10.57;3.75;;;;;;;30.85;24.76;99811.66;7605736;32;40906;-80
2022/07/25 08:46:27;;;;;;;8.27;3.33;;;;;;;31.23;23.31;99813.91;7605253;32;38037;-81
2022/07/25 08:50:44;;;;;;;6.37;2.80;;;;;;;31.10;23.60;99809.97;7592241;32;38014;-80
2022/07/25 08:55:06;;;;;;;5.28;2.42;;;;;;;30.88;22.86;99810.06;7592348;32;39366;-80
2022/07/25 08:59:22;;;;;;;4.93;2.70;;;;;;;30.43;23.59;99807.06;7605845;32;40042;-80
2022/07/25 09:03:39;;;;;;;5.20;2.45;;;;;;;30.66;22.44;99804.53;7605412;32;38783;-81
2022/07/25 09:07:55;;;;;;;5.18;2.62;;;;;;;30.86;22.31;99806.88;7592017;32;37702;-81
2022/07/25 09:12:15;;;;;;;3.50;2.83;;;;;;;31.11;22.05;99787.03;7592306;32;39427;-81
2022/07/25 09:16:37;;;;;;;3.50;2.45;;;;;;;30.81;22.06;99791.19;7592232;32;39673;-80
2022/07/25 09:20:58;;;;;;;6.05;2.45;;;;;;;31.19;20.91;99784.97;7604994;32;38619;-80
2022/07/25 09:25:26;;;;;;;4.53;2.70;;;;;;;30.80;22.30;99786.78;7603919;32;37728;-80
2022/07/25 09:29:42;;;;;;;7.07;2.83;;;;;;;31.20;21.49;99775.31;7605073;32;40141;-80
2022/07/25 09:34:00;;;;;;;5.12;2.58;;;;;;;31.81;20.70;99774.84;7604917;32;40331;-81
2022/07/25 09:38:17;;;;;;;4.10;2.33;;;;;;;31.21;21.18;99765.66;7604866;32;36741;-80
2022/07/25 09:42:35;;;;;;;5.18;2.65;;;;;;;31.15;21.77;99765.31;7591445;32;36803;-81
2022/07/25 09:46:51;;;;;;;4.57;2.85;;;;;;;31.73;21.63;99762.81;7591001;32;39130;-81
2022/07/25 09:51:07;;;;;;;3.42;2.60;;;;;;;31.76;20.90;99764.00;7604286;32;39968;-81
2022/07/25 09:55:23;;;;;;;5.82;2.70;;;;;;;32.16;20.87;99758.78;7604374;32;38634;-81
2022/07/25 09:59:40;;;;;;;7.20;2.85;;;;;;;32.21;20.14;99747.03;7604276;32;37153;-81
2022/07/25 10:04:37;;;;;;;4.93;2.72;;;;;;;32.10;20.16;99747.19;7590843;32;39390;-81
2022/07/25 10:08:53;;;;;;;4.85;2.58;;;;;;;32.35;19.71;99729.94;7592821;32;40799;-81
2022/07/25 10:13:16;;;;;;;3.15;2.40;;;;;;;32.58;19.28;99725.63;7603774;32;38524;-81
2022/07/25 10:17:33;;;;;;;3.37;2.50;;;;;;;32.52;19.50;99721.69;7603702;32;37249;-81
2022/07/25 10:21:54;;;;;;;3.75;2.28;;;;;;;32.51;19.48;99720.88;7603772;32;39930;-81
2022/07/25 10:26:14;;;;;;;5.12;2.80;;;;;;;32.98;19.61;99713.78;7603587;32;40722;-81
2022/07/25 10:30:38;;;;;;;4.57;2.50;;;;;;;33.59;19.51;99707.16;7603463;32;38815;-79
2022/07/25 10:34:54;;;;;;;5.22;2.42;;;;;;;33.50;18.40;99702.06;7604731;32;38067;-80
2022/07/25 10:39:14;;;;;;;4.55;2.90;;;;;;;33.21;19.02;99693.28;7607051;32;40276;-81
2022/07/25 10:43:36;;;;;;;5.25;2.70;;;;;;;33.42;18.36;99697.75;7607034;32;40762;-81
2022/07/25 10:47:55;;;;;;;;;;;;;;;33.63;17.89;99685.25;7593949;32;37924;-80
2022/07/25 10:52:19;;;;;;;5.03;2.80;;;;;;;33.97;18.58;99676.53;7607186;32;36767;-81
2022/07/25 10:56:36;;;;;;;5.15;2.60;;;;;;;34.35;18.11;99666.91;7607227;32;39136;-81
2022/07/25 11:00:52;;;;;;;4.35;2.40;;;;;;;34.50;17.57;99665.34;7606885;32;41644;-81
2022/07/25 11:05:09;;;;;;;4.60;2.70;;;;;;;33.25;18.61;99665.75;7606798;32;38797;-81
2022/07/25 11:09:27;;;;;;;4.95;2.42;;;;;;;33.14;19.03;99663.13;7606576;32;36891;-81
2022/07/25 11:13:43;;;;;;;3.10;2.47;;;;;;;33.41;18.72;99654.59;7606484;32;41097;-80
2022/07/25 11:17:59;;;;;;;4.78;2.50;;;;;;;33.71;18.35;99647.19;7606427;32;40763;-81
2022/07/25 11:22:15;;;;;;;5.95;2.80;;;;;;;33.72;18.92;99633.84;7606757;32;37953;-82
2022/07/25 11:26:42;;;;;;;6.87;2.75;;;;;;;34.41;18.13;99629.16;7606558;32;37799;-82
2022/07/25 11:31:03;;;;;;;5.65;2.28;;;;;;;34.03;17.61;99623.91;7605973;32;39389;-80
2022/07/25 11:35:28;;;;;;;3.78;2.55;;;;;;;34.54;17.34;99620.78;7606187;32;40714;-80
2022/07/25 11:39:46;;;;;;;8.85;2.87;;;;;;;35.16;16.52;99608.75;7612485;32;39130;-80
2022/07/25 11:44:02;;;;;;;6.95;2.87;;;;;;;35.07;16.82;99608.59;7631482;32;37234;-80
2022/07/25 11:48:21;;;;;;;4.60;2.70;;;;;;;35.26;16.48;99595.59;7614723;32;40062;-81
2022/07/25 11:52:37;;;;;;;6.78;2.80;;;;;;;35.94;15.97;99595.72;7606800;32;39965;-80
2022/07/25 11:56:53;;;;;;;5.78;2.60;;;;;;;36.50;15.41;99578.19;7632011;32;37844;-81
2022/07/25 12:01:14;;;;;;;4.90;2.60;;;;;;;35.90;15.70;99579.59;7632023;32;37740;-82
2022/07/25 12:05:31;;;;;;;5.65;2.80;;;;;;;36.28;15.38;99572.41;7631845;32;40937;-81
2022/07/25 12:09:57;;;;;;;4.78;2.80;;;;;;;36.53;15.06;99573.63;7630198;32;40732;-81
2022/07/25 12:14:13;;;;;;;5.15;2.50;;;;;;;37.14;15.17;99568.75;7630840;32;37538;-81
2022/07/25 12:18:29;;;;;;;5.72;2.97;;;;;;;36.27;15.43;99550.94;7626480;32;37770;-82
2022/07/25 12:22:46;;;;;;;5.90;2.50;;;;;;;36.94;15.61;99547.09;7610355;32;39293;-80
2022/07/25 12:27:03;;;;;;;6.78;2.90;;;;;;;36.40;15.37;99539.59;7592423;32;40947;-81
2022/07/25 12:31:18;;;;;;;5.25;2.80;;;;;;;36.17;15.68;99538.69;7617683;32;37999;-80
2022/07/25 12:35:37;;;;;;;10.98;2.80;;;;;;;36.41;15.38;99532.66;7604953;32;37181;-79
2022/07/25 12:39:54;;;;;;;7.15;2.72;;;;;;;35.46;15.62;99525.41;7604944;32;39972;-80
2022/07/25 12:44:10;;;;;;;6.82;3.22;;;;;;;35.55;15.95;99530.41;7605520;32;39974;-80
2022/07/25 12:48:26;;;;;;;3.65;2.25;;;;;;;36.40;15.11;99520.53;7602083;32;38871;-81
2022/07/25 12:52:43;;;;;;;6.00;2.70;;;;;;;36.46;15.35;99513.03;7608530;32;37890;-80
2022/07/25 12:56:59;;;;;;;3.55;2.58;;;;;;;36.94;14.78;99501.66;7626949;32;39393;-80
2022/07/25 13:01:15;;;;;;;3.85;2.33;;;;;;;38.01;14.34;99495.28;7629270;32;40903;-79
2022/07/25 13:05:32;;;;;;;5.32;2.72;;;;;;;37.18;14.12;99490.69;7629284;32;37959;-81
2022/07/25 13:09:48;;;;;;;6.47;2.80;;;;;;;36.54;14.90;99484.41;7630447;32;38028;-77
2022/07/25 13:14:04;;;;;;;4.35;2.55;;;;;;;37.61;14.53;99474.06;7630115;32;39525;-77
2022/07/25 13:18:20;;;;;;;7.87;2.30;;;;;;;37.37;13.82;99471.69;7630632;32;40926;-78
2022/07/25 13:22:36;;;;;;;4.30;2.50;;;;;;;37.43;13.94;99468.25;7630081;32;37991;-78
2022/07/25 13:26:52;;;;;;;7.90;2.80;;;;;;;37.13;13.97;99459.19;7630204;32;36587;-78
2022/07/25 13:31:08;;;;;;;7.32;2.25;;;;;;;37.92;13.77;99448.47;7617217;32;40135;-78
2022/07/25 13:35:25;;;;;;;9.02;2.60;;;;;;;37.01;13.74;99455.16;7629832;32;40039;-78
2022/07/25 13:39:51;;;;;;;8.90;2.87;;;;;;;37.27;13.55;99446.53;7630032;32;37616;-79
2022/07/25 13:44:07;;;;;;;4.50;2.45;;;;;;;37.25;13.19;99446.22;7627351;32;36733;-80
2022/07/25 13:48:23;;;;;;;3.53;2.40;;;;;;;37.12;13.37;99437.72;7603684;32;39829;-79
2022/07/25 13:52:45;;;;;;;4.57;2.60;;;;;;;37.08;12.88;99432.16;7606260;32;39794;-81
2022/07/25 13:57:02;;;;;;;6.15;2.70;;;;;;;37.85;12.58;99417.47;7615734;32;38693;-80
2022/07/25 14:01:18;;;;;;;3.17;2.53;;;;;;;37.03;12.85;99422.22;7627358;32;37188;-81
2022/07/25 14:05:35;;;;;;;4.05;2.10;;;;;;;36.99;13.23;99424.38;7620652;32;40273;-81
2022/07/25 14:09:51;;;;;;;3.83;2.08;;;;;;;36.80;13.17;99411.31;7614269;32;40036;-82
2022/07/25 14:14:07;;;;;;;4.60;2.50;;;;;;;37.18;13.80;99410.34;7627531;32;37962;-80
2022/07/25 14:18:23;;;;;;;8.63;2.90;;;;;;;37.37;13.00;99394.97;7618548;32;37121;-80
2022/07/25 14:22:40;;;;;;;5.20;2.15;;;;;;;38.47;12.88;99388.03;7610797;32;40347;-82
2022/07/25 14:26:57;;;;;;;4.32;1.90;;;;;;;38.95;11.17;99383.94;7626064;32;40042;-83
2022/07/25 14:31:13;;;;;;;3.08;2.28;;;;;;;39.09;11.07;99388.22;7618983;32;37908;-83
2022/07/25 14:35:30;;;;;;;3.97;2.28;;;;;;;39.09;10.86;99376.81;7632562;32;37388;-81
2022/07/25 14:39:48;;;;;;;3.00;1.95;;;;;;;39.25;10.43;99368.66;7611102;32;39859;-81
2022/07/25 14:44:04;;;;;;;2.85;2.20;;;;;;;39.44;10.30;99363.69;7614426;32;40103;-82
2022/07/25 14:48:22;;;;;;;5.03;2.22;;;;;;;39.17;10.33;99358.91;7622299;32;36886;-83
2022/07/25 14:52:38;;;;;;;3.40;2.03;;;;;;;39.37;10.21;99357.56;7622355;32;38052;-83
2022/07/25 14:56:54;;;;;;;3.97;2.28;;;;;;;39.57;10.04;99346.41;7620234;32;39455;-83
2022/07/25 15:01:11;;;;;;;4.70;2.37;;;;;;;39.46;9.87;99343.25;7619858;32;39989;-83
2022/07/25 15:05:27;;;;;;;6.00;1.90;;;;;;;38.49;10.70;99342.81;7631517;32;38446;-83
2022/07/25 15:09:43;;;;;;;5.07;2.47;;;;;;;38.18;10.70;99333.62;7607934;32;37090;-83
2022/07/25 15:13:59;;;;;;;3.37;2.10;;;;;;;38.44;10.30;99332.06;7605991;32;39098;-84
2022/07/25 15:18:15;;;;;;;4.30;2.10;;;;;;;38.43;10.93;99318.28;7605991;32;40550;-82
2022/07/25 15:22:31;;;;;;;4.45;2.15;;;;;;;38.72;10.90;99320.66;7625889;32;37984;-84
2022/07/25 15:26:47;;;;;;;4.10;2.05;;;;;;;37.99;11.14;99316.50;7613844;32;37227;-84
2022/07/25 15:31:04;;;;;;;6.28;2.10;;;;;;;37.71;11.36;99315.69;7612989;32;39478;-84
2022/07/25 15:35:21;;;;;;;4.85;2.33;;;;;;;38.19;10.88;99304.72;7605946;32;39679;-82
2022/07/25 15:39:37;;;;;;;4.78;2.00;;;;;;;37.53;11.35;99302.16;7608534;32;37674;-83
2022/07/25 15:43:53;;;;;;;7.62;2.20;;;;;;;37.50;10.96;99297.44;7605619;32;36857;-83
2022/07/25 15:48:10;;;;;;;3.97;2.08;;;;;;;37.55;11.36;99293.94;7612543;32;39931;-82
2022/07/25 15:52:27;;;;;;;4.37;2.03;;;;;;;38.11;11.16;99298.53;7631111;32;39916;-83
2022/07/25 15:56:44;;;;;;;4.10;2.05;;;;;;;38.27;11.01;99294.56;7628059;32;38609;-82
2022/07/25 16:01:00;;;;;;;3.40;2.08;;;;;;;38.38;10.70;99290.47;7623375;32;37389;-82
2022/07/25 16:05:16;;;;;;;4.87;1.92;;;;;;;38.56;10.35;99289.66;7631301;32;39522;-82
2022/07/25 16:09:33;;;;;;;4.55;2.30;;;;;;;38.25;10.45;99282.09;7630859;32;40025;-83
2022/07/25 16:13:49;;;;;;;5.12;2.25;;;;;;;38.57;10.77;99280.66;7626753;32;36531;-82
2022/07/25 16:18:06;;;;;;;4.70;1.90;;;;;;;38.87;9.86;99273.16;7605552;32;36680;-81
2022/07/25 16:22:22;;;;;;;2.45;1.98;;;;;;;38.34;10.13;99276.37;7610638;32;40018;-81
2022/07/25 16:26:38;;;;;;;4.03;2.10;;;;;;;38.57;10.72;99274.94;7631119;32;40941;-83
2022/07/25 16:30:54;;;;;;;3.42;2.28;;;;;;;38.30;10.19;99272.94;7630245;32;38744;-83
2022/07/25 16:35:10;;;;;;;4.62;2.00;;;;;;;38.57;10.65;99274.12;7609338;32;37093;-82
2022/07/25 16:39:27;;;;;;;4.60;2.10;;;;;;;37.96;10.17;99277.63;7592061;32;40108;-82
2022/07/25 16:43:43;;;;;;;4.60;1.90;;;;;;;38.41;9.95;99270.41;7605235;32;39834;-82
2022/07/25 16:47:59;;;;;;;4.85;2.10;;;;;;;38.61;10.45;99263.44;7605564;32;38725;-82
2022/07/25 16:52:15;;;;;;;8.30;2.40;;;;;;;38.80;10.79;99262.09;7591312;32;37739;-84
2022/07/25 16:56:32;;;;;;;3.22;2.00;;;;;;;38.55;10.29;99273.84;7605190;32;40151;-84
2022/07/25 17:00:48;;;;;;;5.37;2.30;;;;;;;38.24;10.84;99260.59;7604886;32;40022;-83
2022/07/25 17:05:04;;;;;;;8.45;2.37;;;;;;;38.28;11.19;99264.06;7609806;32;38769;-81
2022/07/25 17:09:22;;;;;;;7.95;2.30;;;;;;;38.29;10.54;99262.78;7631100;32;38031;-83
2022/07/25 17:13:38;;;;;;;6.18;2.20;;;;;;;37.82;11.75;99258.34;7593351;32;40065;-82
2022/07/25 17:17:54;;;;;;;4.30;2.20;;;;;;;37.80;11.94;99258.03;7605142;32;40001;-82
2022/07/25 17:22:10;;;;;;;7.12;2.58;;;;;;;37.71;12.11;99251.06;7605635;32;37941;-83
2022/07/25 17:26:27;;;;;;;58.00;37.67;;;;;;;37.59;12.81;99255.59;7630503;32;36767;-86
2022/07/25 17:30:44;;;;;;;10.82;6.35;;;;;;;37.57;12.41;99260.97;7604429;32;39138;-84
2022/07/25 17:35:00;;;;;;;7.00;4.80;;;;;;;37.50;12.17;99254.81;7609911;32;40903;-86
2022/07/25 17:39:16;;;;;;;9.80;2.78;;;;;;;37.09;13.51;99262.53;7604306;32;37798;-85
2022/07/25 17:43:32;;;;;;;4.93;2.20;;;;;;;36.84;13.56;99261.44;7622110;32;37749;-87
2022/07/25 17:47:49;;;;;;;4.12;2.30;;;;;;;36.41;13.85;99261.03;7614101;32;39285;-87
2022/07/25 17:52:05;;;;;;;4.85;2.33;;;;;;;35.99;14.05;99264.09;7613985;32;39988;-86
2022/07/25 17:56:21;;;;;;;7.20;2.40;;;;;;;35.83;14.49;99261.47;7628108;32;38103;-86
2022/07/25 18:00:40;;;;;;;6.32;2.55;;;;;;;35.53;14.79;99255.13;7628524;32;38558;-80
2022/07/25 18:04:56;;;;;;;3.70;2.28;;;;;;;35.25;15.21;99254.81;7622783;32;230908;-77
2022/07/25 18:09:13;;;;;;;11.50;4.55;;;;;;;34.91;16.03;99255.47;7627215;32;39898;-83
2022/07/25 18:13:29;;;;;;;4.50;2.85;;;;;;;34.72;15.26;99249.56;7628474;32;38690;-80
2022/07/25 18:17:46;;;;;;;6.75;2.67;;;;;;;34.38;16.23;99250.94;7610931;32;37391;-80
2022/07/25 18:22:02;;;;;;;6.35;2.58;;;;;;;33.94;16.94;99236.34;7628380;32;39331;-81
2022/07/25 18:26:20;;;;;;;4.55;2.15;;;;;;;33.67;16.99;99234.66;7609933;32;40759;-82
2022/07/25 18:30:36;;;;;;;5.50;2.45;;;;;;;33.20;17.67;99239.81;7602266;32;39402;-81
2022/07/25 18:34:52;;;;;;;7.28;2.50;;;;;;;33.00;17.57;99237.06;7603258;32;37816;-83
2022/07/25 18:39:09;;;;;;;4.60;2.45;;;;;;;33.04;17.19;99232.09;7602381;32;39289;-81
2022/07/25 18:43:25;;;;;;;4.07;2.50;;;;;;;32.64;17.72;99232.22;7598306;32;40904;-81
2022/07/25 18:47:43;;;;;;;13.60;3.25;;;;;;;32.63;17.85;99231.37;7628231;32;37998;-82
2022/07/25 18:51:59;;;;;;;6.47;2.83;;;;;;;32.26;18.57;99230.53;7627964;32;37031;-81
2022/07/25 18:56:15;;;;;;;6.32;2.50;;;;;;;32.04;19.36;99241.38;7630374;32;39558;-79
2022/07/25 19:00:32;;;;;;;11.38;3.25;;;;;;;31.75;19.82;99236.31;7632734;32;39649;-76
2022/07/25 19:04:48;;;;;;;8.05;3.60;;;;;;;31.46;20.21;99241.59;7624924;32;37991;-80
2022/07/25 19:09:04;;;;;;;10.68;3.08;;;;;;;31.57;20.36;99244.25;7628884;32;37896;-79
2022/07/25 19:13:20;;;;;;;6.30;2.45;;;;;;;31.21;21.09;99242.00;7608826;32;39406;-78
2022/07/25 19:17:56;;;;;;;5.62;2.47;;;;;;;30.99;21.49;99253.56;7605850;32;41406;-79
2022/07/25 19:22:12;;;;;;;8.55;3.10;;;;;;;30.70;21.71;99251.12;7609537;32;38578;-76
2022/07/25 19:26:28;;;;;;;5.72;3.00;;;;;;;30.82;21.42;99260.19;7632176;32;37025;-83
2022/07/25 19:30:44;;;;;;;5.20;3.12;;;;;;;30.51;22.68;99260.19;7629826;32;39372;-76
2022/07/25 19:35:04;;;;;;;6.70;2.97;;;;;;;30.45;22.38;99257.06;7614655;32;40204;-80
2022/07/25 19:39:23;;;;;;;8.75;3.22;;;;;;;30.50;22.42;99258.62;7630579;32;38083;-80
2022/07/25 19:43:39;;;;;;;6.32;2.95;;;;;;;30.39;22.59;99257.94;7612960;32;37091;-80
2022/07/25 19:47:55;;;;;;;20.80;13.93;;;;;;;30.23;22.76;99262.09;7606109;32;39982;-81
2022/07/25 19:52:12;;;;;;;11.73;5.93;;;;;;;29.96;23.62;99264.81;7609100;32;40503;-80
2022/07/25 19:56:29;;;;;;;3.22;2.67;;;;;;;29.78;23.98;99268.56;7621256;32;38647;-79
2022/07/25 20:00:46;;;;;;;6.37;3.10;;;;;;;29.58;24.34;99262.69;7626867;32;36947;-78
2022/07/25 20:05:02;;;;;;;7.45;3.03;;;;;;;29.77;23.59;99252.94;7606020;32;39514;-79
2022/07/25 20:09:19;;;;;;;5.70;3.25;;;;;;;29.37;23.99;99262.84;7605229;32;40942;-79
2022/07/25 20:13:35;;;;;;;8.45;3.67;;;;;;;29.25;24.26;99261.34;7615077;32;37718;-79
2022/07/25 20:17:51;;;;;;;5.93;3.15;;;;;;;29.06;24.30;99262.63;7631370;32;37748;-80